Aérodrome :
LOGIN :

S'inscrire | Disclaimer

   EN    FR    IT 

 










Légende :    VFR   VFR Marginal   IFR   IFR Intensif   IFR Très Intensif
Visi : 
Plafond : 
>= 8 km
>= 3000ft
5 à 8 km
1000 à 3000 ft
1500m à 5 km
500 à 1000 ft
800 à 1500m
200 à 500 ft
< 800m
< 200 ft
Symboles :   Orages  Brouillard  Fortes neiges  Fortes précipitations  Vent > 20 kt
SIGMETs :   Divers  Orages  Givrage  Turbulence  Onde Orograph.  Cendres Volcan.






- Altitude de l'aérodrome : 164 ft
- Code IATA : VBY


ESSV - Visby

DERNIER METAR :
  • 281850Z AUTO 36006KT 9999 NCD 10/07 Q1029

METARs EXPIRÉS :
  • 281820Z AUTO 36006KT 9999 NCD 11/06 Q1029
  • 281750Z AUTO 35006KT 9999 NCD 13/03 Q1029
  • 281720Z AUTO 35006KT 9999 NCD 14/04 Q1029
  • 281650Z 04007KT 010V090 9999 NSC 15/01 Q1029
  • 281620Z 02006KT CAVOK 14/02 Q1029

TAF TAF ESSV
Valide du 28 à 18h jusqu'au 28 à 22h UTC


281730Z 2818/2822 07005KT CAVOK



MET'MAP, la Météo Aéronautique d'un coup d'oeil ! - Copyright ORBIFLY Décembre 2007 - Disclaimer

ORBIFLY MET'MAP TEAM :

Programmation & Développement : Alexandra Zaïnal
Sur une idée originale de : Baudouin d'Aumeries
Assistance à la programmation : Marc-Olivier Méhu
Soutien technique & logistique : Manuel Goepfert

Contact : metmap@orbifly.com




SOURCES & CREDITS :

   NOAA